This is the latest recevied weather packets stored in our database for station/object SQ8AQL-16. If no packets are shown the sender has not sent any weather packets the latest 10 day(s).
| Time | Temp. | Humidity | Pressure | Rain* | Wind** | Luminosity | Snow |
|---|---|---|---|---|---|---|---|
| 1777700660 | 9.44° C | 67% | 1027.8 hPa | - | - | 20 W/m² | - |
| 1777699759 | 8.33° C | 71% | 1027.8 hPa | - | - | 19 W/m² | - |
| 1777698858 | 7.78° C | 73% | 1027.8 hPa | - | - | 18 W/m² | - |
| 1777697957 | 7.22° C | 73% | 1027.6 hPa | - | - | 17 W/m² | - |
| 1777697056 | 6.67° C | 76% | 1027.5 hPa | - | - | 16 W/m² | - |
| 1777696155 | 6.11° C | 78% | 1027.4 hPa | - | - | 14 W/m² | - |
| 1777695254 | 5.56° C | 78% | 1027.2 hPa | - | - | 12 W/m² | - |
| 1777694353 | 5.56° C | 78% | 1027.2 hPa | - | - | 10 W/m² | - |
| 1777693452 | 5.56° C | 79% | 1027.1 hPa | - | - | 6 W/m² | - |
| 1777692551 | 5.56° C | 79% | 1027.1 hPa | - | - | 1 W/m² | - |
| 1777691650 | 5.56° C | 79% | 1026.9 hPa | - | - | 1 W/m² | - |
| 1777690749 | 6.11° C | 77% | 1026.8 hPa | - | - | - | - |
| 1777689849 | 6.11° C | 77% | 1026.9 hPa | - | - | - | - |
| 1777688948 | 6.11° C | 77% | 1026.9 hPa | - | - | - | - |
| 1777670028 | 11.67° C | 57% | 1026.6 hPa | - | - | - | - |
| 1777669127 | 12.78° C | 54% | 1026.5 hPa | - | - | - | - |
| 1777668226 | 12.78° C | 54% | 1026.5 hPa | - | - | - | - |
| 1777666424 | 12.78° C | 54% | 1026.3 hPa | - | - | - | - |
| 1777665523 | 14.44° C | 49% | 1026.3 hPa | - | - | - | - |
| 1777663721 | 15° C | 48% | 1026.1 hPa | - | - | - | - |
| 1777660118 | 16.67° C | 42% | 1025.8 hPa | - | - | - | - |
| 1777655613 | 18.33° C | 37% | 1025.4 hPa | - | - | 13 W/m² | - |
| 1777652009 | 20° C | 33% | 1025.6 hPa | - | - | 45 W/m² | - |
| 1777651108 | 20.56° C | 32% | 1025.6 hPa | - | - | 38 W/m² | - |
| 1777650207 | 20.56° C | 31% | 1025.7 hPa | - | - | 51 W/m² | - |
* Rain since midnight (hover to see other rain measurements)
** Current wind speed in m/s (hover to see current wind gust speed)